Авиационная погода в Курске

Погода METAR: 
UUOK 282200Z AUTO 09002MPS 060V120 9999 // 20/15 Q1019 RMK QFE746/0994
Время наблюдения
2022-06-28T22:00:00Z
Температура C
20.0
Точка росы
15.0
Направление ветра
90
Скорость ветра (узлы)
4
Метео видимость
6.21
Облачность
Нижняя граница облачности (футы)
Явления погоды
Условия полета
Аэропорт подробнее: